sensor_id;sensor_type;location;lat;lon;timestamp;pressure;altitude;pressure_sealevel;temperature;humidity
62436;BME280;48480;50.252;18.848;2023-05-12T00:02:08;98811.05;;;12.35;45.82
62436;BME280;48480;50.252;18.848;2023-05-12T00:04:52;98807.29;;;12.31;45.93
62436;BME280;48480;50.252;18.848;2023-05-12T00:07:36;98809.44;;;12.28;46.18
62436;BME280;48480;50.252;18.848;2023-05-12T00:10:20;98811.69;;;12.23;46.38
62436;BME280;48480;50.252;18.848;2023-05-12T00:13:04;98811.28;;;12.15;46.44
62436;BME280;48480;50.252;18.848;2023-05-12T00:15:49;98815.08;;;12.11;46.69
62436;BME280;48480;50.252;18.848;2023-05-12T00:18:34;98810.30;;;12.05;46.88
62436;BME280;48480;50.252;18.848;2023-05-12T00:21:18;98810.58;;;12.01;46.87
62436;BME280;48480;50.252;18.848;2023-05-12T00:24:02;98808.55;;;11.95;46.92
62436;BME280;48480;50.252;18.848;2023-05-12T00:26:47;98808.09;;;11.89;47.07
62436;BME280;48480;50.252;18.848;2023-05-12T00:29:32;98811.77;;;11.84;47.26
62436;BME280;48480;50.252;18.848;2023-05-12T00:32:17;98809.59;;;11.80;47.45
62436;BME280;48480;50.252;18.848;2023-05-12T00:35:01;98809.35;;;11.77;47.66
62436;BME280;48480;50.252;18.848;2023-05-12T00:37:45;98806.88;;;11.69;47.56
62436;BME280;48480;50.252;18.848;2023-05-12T00:40:29;98810.79;;;11.62;47.85
62436;BME280;48480;50.252;18.848;2023-05-12T00:43:14;98807.84;;;11.57;48.22
62436;BME280;48480;50.252;18.848;2023-05-12T00:46:19;98809.51;;;11.51;48.33
62436;BME280;48480;50.252;18.848;2023-05-12T00:49:09;98808.23;;;11.45;48.39
62436;BME280;48480;50.252;18.848;2023-05-12T00:51:54;98803.05;;;11.41;48.60
62436;BME280;48480;50.252;18.848;2023-05-12T00:54:38;98803.64;;;11.40;48.78
62436;BME280;48480;50.252;18.848;2023-05-12T00:57:24;98805.55;;;11.37;48.79
62436;BME280;48480;50.252;18.848;2023-05-12T01:00:10;98806.19;;;11.31;49.05
62436;BME280;48480;50.252;18.848;2023-05-12T01:02:55;98807.70;;;11.25;49.10
62436;BME280;48480;50.252;18.848;2023-05-12T01:06:05;98811.02;;;11.20;49.12
62436;BME280;48480;50.252;18.848;2023-05-12T01:08:53;98808.38;;;11.14;49.37
62436;BME280;48480;50.252;18.848;2023-05-12T01:11:38;98809.59;;;11.09;49.59
62436;BME280;48480;50.252;18.848;2023-05-12T01:14:22;98810.04;;;11.04;49.74
62436;BME280;48480;50.252;18.848;2023-05-12T01:17:11;98807.81;;;11.01;49.87
62436;BME280;48480;50.252;18.848;2023-05-12T01:19:59;98805.39;;;10.95;50.03
62436;BME280;48480;50.252;18.848;2023-05-12T01:22:46;98811.05;;;10.90;50.32
62436;BME280;48480;50.252;18.848;2023-05-12T01:25:33;98808.71;;;10.83;50.43
62436;BME280;48480;50.252;18.848;2023-05-12T01:28:17;98811.26;;;10.76;50.65
62436;BME280;48480;50.252;18.848;2023-05-12T01:31:03;98810.73;;;10.73;50.72
62436;BME280;48480;50.252;18.848;2023-05-12T01:33:49;98812.48;;;10.63;51.01
62436;BME280;48480;50.252;18.848;2023-05-12T01:36:33;98812.29;;;10.56;51.13
62436;BME280;48480;50.252;18.848;2023-05-12T01:39:17;98816.05;;;10.53;51.42
62436;BME280;48480;50.252;18.848;2023-05-12T01:42:02;98818.84;;;10.49;51.58
62436;BME280;48480;50.252;18.848;2023-05-12T01:44:47;98820.73;;;10.46;51.65
62436;BME280;48480;50.252;18.848;2023-05-12T01:47:31;98813.16;;;10.40;51.88
62436;BME280;48480;50.252;18.848;2023-05-12T01:50:16;98814.95;;;10.39;51.88
62436;BME280;48480;50.252;18.848;2023-05-12T01:53:00;98813.77;;;10.34;52.15
62436;BME280;48480;50.252;18.848;2023-05-12T01:55:44;98817.23;;;10.30;52.15
62436;BME280;48480;50.252;18.848;2023-05-12T01:58:28;98820.10;;;10.27;52.29
62436;BME280;48480;50.252;18.848;2023-05-12T02:01:13;98821.17;;;10.24;52.23
62436;BME280;48480;50.252;18.848;2023-05-12T02:03:58;98818.84;;;10.23;52.43
62436;BME280;48480;50.252;18.848;2023-05-12T02:06:42;98823.63;;;10.20;52.47
62436;BME280;48480;50.252;18.848;2023-05-12T02:09:26;98820.83;;;10.15;52.77
62436;BME280;48480;50.252;18.848;2023-05-12T02:12:10;98822.24;;;10.10;52.85
62436;BME280;48480;50.252;18.848;2023-05-12T02:14:54;98820.51;;;10.08;52.74
62436;BME280;48480;50.252;18.848;2023-05-12T02:17:38;98820.34;;;10.04;52.91
62436;BME280;48480;50.252;18.848;2023-05-12T02:20:22;98819.51;;;10.00;53.07
62436;BME280;48480;50.252;18.848;2023-05-12T02:23:06;98820.36;;;9.98;53.25
62436;BME280;48480;50.252;18.848;2023-05-12T02:25:50;98820.10;;;9.93;53.34
62436;BME280;48480;50.252;18.848;2023-05-12T02:28:34;98820.30;;;9.91;53.40
62436;BME280;48480;50.252;18.848;2023-05-12T02:31:19;98820.39;;;9.89;53.39
62436;BME280;48480;50.252;18.848;2023-05-12T02:34:03;98823.92;;;9.87;53.55
62436;BME280;48480;50.252;18.848;2023-05-12T02:36:47;98826.41;;;9.83;53.61
62436;BME280;48480;50.252;18.848;2023-05-12T02:39:32;98820.68;;;9.79;53.70
62436;BME280;48480;50.252;18.848;2023-05-12T02:42:16;98825.30;;;9.80;53.71
62436;BME280;48480;50.252;18.848;2023-05-12T02:45:01;98826.13;;;9.82;53.88
62436;BME280;48480;50.252;18.848;2023-05-12T02:47:45;98826.67;;;9.78;53.96
62436;BME280;48480;50.252;18.848;2023-05-12T02:50:29;98824.33;;;9.73;54.14
62436;BME280;48480;50.252;18.848;2023-05-12T02:53:13;98824.20;;;9.64;54.37
62436;BME280;48480;50.252;18.848;2023-05-12T02:55:58;98820.80;;;9.60;54.48
62436;BME280;48480;50.252;18.848;2023-05-12T02:58:42;98821.31;;;9.55;54.69
62436;BME280;48480;50.252;18.848;2023-05-12T03:01:26;98821.36;;;9.53;54.82
62436;BME280;48480;50.252;18.848;2023-05-12T03:04:10;98820.64;;;9.51;54.91
62436;BME280;48480;50.252;18.848;2023-05-12T03:06:55;98820.86;;;9.51;54.98
62436;BME280;48480;50.252;18.848;2023-05-12T03:09:40;98817.11;;;9.54;54.91
62436;BME280;48480;50.252;18.848;2023-05-12T03:12:24;98820.13;;;9.50;55.31
62436;BME280;48480;50.252;18.848;2023-05-12T03:15:09;98822.52;;;9.44;55.46
62436;BME280;48480;50.252;18.848;2023-05-12T03:17:53;98819.83;;;9.42;55.38
62436;BME280;48480;50.252;18.848;2023-05-12T03:20:37;98820.10;;;9.42;55.45
62436;BME280;48480;50.252;18.848;2023-05-12T03:23:22;98824.48;;;9.39;55.58
62436;BME280;48480;50.252;18.848;2023-05-12T03:26:06;98826.14;;;9.36;55.58
62436;BME280;48480;50.252;18.848;2023-05-12T03:28:50;98825.25;;;9.35;55.85
62436;BME280;48480;50.252;18.848;2023-05-12T03:31:34;98824.70;;;9.33;55.86
62436;BME280;48480;50.252;18.848;2023-05-12T03:34:19;98823.52;;;9.34;55.83
62436;BME280;48480;50.252;18.848;2023-05-12T03:37:03;98823.91;;;9.35;55.83
62436;BME280;48480;50.252;18.848;2023-05-12T03:39:47;98827.23;;;9.36;55.93
62436;BME280;48480;50.252;18.848;2023-05-12T03:42:32;98827.81;;;9.36;56.13
62436;BME280;48480;50.252;18.848;2023-05-12T03:45:16;98827.66;;;9.35;56.05
62436;BME280;48480;50.252;18.848;2023-05-12T03:48:00;98823.55;;;9.34;56.17
62436;BME280;48480;50.252;18.848;2023-05-12T03:50:44;98826.11;;;9.35;56.24
62436;BME280;48480;50.252;18.848;2023-05-12T03:53:28;98831.37;;;9.38;56.15
62436;BME280;48480;50.252;18.848;2023-05-12T03:56:13;98829.36;;;9.42;56.19
62436;BME280;48480;50.252;18.848;2023-05-12T03:58:58;98826.60;;;9.46;56.19
62436;BME280;48480;50.252;18.848;2023-05-12T04:01:42;98830.38;;;9.46;56.24
62436;BME280;48480;50.252;18.848;2023-05-12T04:04:26;98832.32;;;9.47;56.19
62436;BME280;48480;50.252;18.848;2023-05-12T04:07:10;98836.80;;;9.47;56.14
62436;BME280;48480;50.252;18.848;2023-05-12T04:09:55;98840.05;;;9.48;56.19
62436;BME280;48480;50.252;18.848;2023-05-12T04:12:39;98839.36;;;9.53;56.13
62436;BME280;48480;50.252;18.848;2023-05-12T04:15:23;98840.16;;;9.56;56.25
62436;BME280;48480;50.252;18.848;2023-05-12T04:18:07;98838.13;;;9.61;56.10
62436;BME280;48480;50.252;18.848;2023-05-12T04:20:55;98840.52;;;9.65;56.15
62436;BME280;48480;50.252;18.848;2023-05-12T04:23:42;98844.98;;;9.67;56.14
62436;BME280;48480;50.252;18.848;2023-05-12T04:26:27;98847.77;;;9.69;56.18
62436;BME280;48480;50.252;18.848;2023-05-12T04:29:11;98847.21;;;9.70;56.12
62436;BME280;48480;50.252;18.848;2023-05-12T04:31:56;98846.06;;;9.76;56.17
62436;BME280;48480;50.252;18.848;2023-05-12T04:34:40;98848.39;;;9.86;56.08
62436;BME280;48480;50.252;18.848;2023-05-12T04:37:24;98848.00;;;9.93;55.89
62436;BME280;48480;50.252;18.848;2023-05-12T04:40:09;98849.35;;;9.99;55.79
62436;BME280;48480;50.252;18.848;2023-05-12T04:42:53;98850.35;;;10.04;55.66
62436;BME280;48480;50.252;18.848;2023-05-12T04:45:37;98852.97;;;10.12;55.74
62436;BME280;48480;50.252;18.848;2023-05-12T04:48:21;98853.20;;;10.21;55.47
62436;BME280;48480;50.252;18.848;2023-05-12T04:51:05;98854.91;;;10.31;55.39
62436;BME280;48480;50.252;18.848;2023-05-12T04:53:49;98854.88;;;10.43;55.17
62436;BME280;48480;50.252;18.848;2023-05-12T04:56:33;98851.02;;;10.51;55.06
62436;BME280;48480;50.252;18.848;2023-05-12T04:59:17;98854.76;;;10.61;55.00
62436;BME280;48480;50.252;18.848;2023-05-12T05:02:02;98852.56;;;10.67;54.86
62436;BME280;48480;50.252;18.848;2023-05-12T05:04:46;98852.73;;;11.28;53.91
62436;BME280;48480;50.252;18.848;2023-05-12T05:07:30;98851.25;;;12.85;51.20
62436;BME280;48480;50.252;18.848;2023-05-12T05:10:14;98857.20;;;13.38;49.97
62436;BME280;48480;50.252;18.848;2023-05-12T05:12:58;98858.05;;;14.04;47.97
62436;BME280;48480;50.252;18.848;2023-05-12T05:15:49;98853.40;;;15.30;46.09
62436;BME280;48480;50.252;18.848;2023-05-12T05:18:33;98853.31;;;16.48;44.11
62436;BME280;48480;50.252;18.848;2023-05-12T05:21:18;98855.80;;;17.40;42.10
62436;BME280;48480;50.252;18.848;2023-05-12T05:24:02;98854.08;;;18.07;40.37
62436;BME280;48480;50.252;18.848;2023-05-12T05:26:47;98852.15;;;18.83;39.16
62436;BME280;48480;50.252;18.848;2023-05-12T05:29:32;98844.83;;;19.66;38.14
62436;BME280;48480;50.252;18.848;2023-05-12T05:32:17;98849.79;;;20.39;36.19
62436;BME280;48480;50.252;18.848;2023-05-12T05:35:02;98847.48;;;20.68;34.98
62436;BME280;48480;50.252;18.848;2023-05-12T05:37:46;98847.85;;;21.05;34.58
62436;BME280;48480;50.252;18.848;2023-05-12T05:40:30;98850.77;;;21.36;33.95
62436;BME280;48480;50.252;18.848;2023-05-12T05:43:14;98849.28;;;21.54;33.29
62436;BME280;48480;50.252;18.848;2023-05-12T05:45:59;98846.78;;;21.77;32.62
62436;BME280;48480;50.252;18.848;2023-05-12T05:48:44;98852.95;;;22.22;32.38
62436;BME280;48480;50.252;18.848;2023-05-12T05:51:28;98859.02;;;22.72;31.19
62436;BME280;48480;50.252;18.848;2023-05-12T05:54:12;98860.48;;;23.00;30.35
62436;BME280;48480;50.252;18.848;2023-05-12T05:56:56;98861.38;;;23.34;29.96
62436;BME280;48480;50.252;18.848;2023-05-12T05:59:40;98865.13;;;23.41;28.74
62436;BME280;48480;50.252;18.848;2023-05-12T06:02:24;98862.16;;;22.82;28.55
62436;BME280;48480;50.252;18.848;2023-05-12T06:05:09;98861.95;;;22.23;29.26
62436;BME280;48480;50.252;18.848;2023-05-12T06:07:54;98856.36;;;22.14;29.67
62436;BME280;48480;50.252;18.848;2023-05-12T06:10:38;98863.12;;;22.60;29.58
62436;BME280;48480;50.252;18.848;2023-05-12T06:13:24;98866.20;;;22.76;29.19
62436;BME280;48480;50.252;18.848;2023-05-12T06:16:11;98866.56;;;22.93;28.79
62436;BME280;48480;50.252;18.848;2023-05-12T06:18:55;98873.93;;;23.04;28.65
62436;BME280;48480;50.252;18.848;2023-05-12T06:21:39;98870.77;;;23.36;28.53
62436;BME280;48480;50.252;18.848;2023-05-12T06:24:26;98870.96;;;23.88;27.96
62436;BME280;48480;50.252;18.848;2023-05-12T06:27:10;98869.34;;;24.36;27.35
62436;BME280;48480;50.252;18.848;2023-05-12T06:29:54;98870.34;;;24.62;27.05
62436;BME280;48480;50.252;18.848;2023-05-12T06:32:38;98873.98;;;24.71;26.64
62436;BME280;48480;50.252;18.848;2023-05-12T06:35:22;98866.86;;;24.52;26.73
62436;BME280;48480;50.252;18.848;2023-05-12T06:38:07;98845.15;;;24.53;26.53
62436;BME280;48480;50.252;18.848;2023-05-12T06:40:51;98869.02;;;24.99;26.14
62436;BME280;48480;50.252;18.848;2023-05-12T06:43:35;98867.21;;;25.11;25.64
62436;BME280;48480;50.252;18.848;2023-05-12T06:46:20;98865.48;;;25.01;25.91
62436;BME280;48480;50.252;18.848;2023-05-12T06:49:10;98845.13;;;24.85;25.60
62436;BME280;48480;50.252;18.848;2023-05-12T06:51:58;98869.05;;;24.51;25.47
62436;BME280;48480;50.252;18.848;2023-05-12T06:54:42;98868.14;;;23.88;26.22
62436;BME280;48480;50.252;18.848;2023-05-12T06:57:27;98867.77;;;23.81;26.92
62436;BME280;48480;50.252;18.848;2023-05-12T07:00:12;98867.31;;;24.10;26.57
62436;BME280;48480;50.252;18.848;2023-05-12T07:02:56;98866.30;;;24.12;26.45
62436;BME280;48480;50.252;18.848;2023-05-12T07:05:40;98863.27;;;24.26;26.75
62436;BME280;48480;50.252;18.848;2023-05-12T07:08:24;98862.73;;;24.60;26.38
62436;BME280;48480;50.252;18.848;2023-05-12T07:11:08;98859.34;;;25.06;25.97
62436;BME280;48480;50.252;18.848;2023-05-12T07:13:59;98864.17;;;25.20;25.42
62436;BME280;48480;50.252;18.848;2023-05-12T07:16:43;98862.67;;;25.12;24.98
62436;BME280;48480;50.252;18.848;2023-05-12T07:19:30;98855.05;;;24.90;25.12
62436;BME280;48480;50.252;18.848;2023-05-12T07:22:14;98856.81;;;24.84;25.25
62436;BME280;48480;50.252;18.848;2023-05-12T07:24:58;98855.09;;;24.97;25.55
62436;BME280;48480;50.252;18.848;2023-05-12T07:27:42;98860.45;;;25.16;25.45
62436;BME280;48480;50.252;18.848;2023-05-12T07:30:26;98859.46;;;25.34;25.34
62436;BME280;48480;50.252;18.848;2023-05-12T07:33:10;98858.04;;;25.24;25.03
62436;BME280;48480;50.252;18.848;2023-05-12T07:35:54;98854.36;;;25.00;25.64
62436;BME280;48480;50.252;18.848;2023-05-12T07:38:43;98851.61;;;25.02;26.02
62436;BME280;48480;50.252;18.848;2023-05-12T07:41:30;98857.92;;;25.16;25.93
62436;BME280;48480;50.252;18.848;2023-05-12T07:44:14;98854.19;;;25.25;25.54
62436;BME280;48480;50.252;18.848;2023-05-12T07:46:59;98856.80;;;25.10;24.94
62436;BME280;48480;50.252;18.848;2023-05-12T07:49:43;98858.85;;;24.83;25.30
62436;BME280;48480;50.252;18.848;2023-05-12T07:52:27;98860.65;;;24.84;25.51
62436;BME280;48480;50.252;18.848;2023-05-12T07:55:12;98861.29;;;24.95;25.29
62436;BME280;48480;50.252;18.848;2023-05-12T07:57:56;98858.21;;;24.85;25.02
62436;BME280;48480;50.252;18.848;2023-05-12T08:00:40;98854.67;;;24.77;25.25
62436;BME280;48480;50.252;18.848;2023-05-12T08:03:25;98856.59;;;24.82;25.12
62436;BME280;48480;50.252;18.848;2023-05-12T08:06:09;98854.39;;;24.82;25.46
62436;BME280;48480;50.252;18.848;2023-05-12T08:08:53;98853.67;;;24.97;25.84
62436;BME280;48480;50.252;18.848;2023-05-12T08:11:42;98858.59;;;25.11;25.53
62436;BME280;48480;50.252;18.848;2023-05-12T08:14:26;98859.98;;;25.13;25.30
62436;BME280;48480;50.252;18.848;2023-05-12T08:17:11;98851.88;;;25.07;25.36
62436;BME280;48480;50.252;18.848;2023-05-12T08:19:55;98862.88;;;25.14;25.32
62436;BME280;48480;50.252;18.848;2023-05-12T08:22:43;98857.42;;;25.20;25.15
62436;BME280;48480;50.252;18.848;2023-05-12T08:25:27;98858.91;;;25.25;25.06
62436;BME280;48480;50.252;18.848;2023-05-12T08:28:19;98860.61;;;25.14;24.91
62436;BME280;48480;50.252;18.848;2023-05-12T08:31:03;98863.52;;;24.90;25.22
62436;BME280;48480;50.252;18.848;2023-05-12T08:33:54;98856.41;;;24.59;25.05
62436;BME280;48480;50.252;18.848;2023-05-12T08:36:43;98858.95;;;24.46;26.06
62436;BME280;48480;50.252;18.848;2023-05-12T08:39:38;98858.90;;;24.62;26.14
62436;BME280;48480;50.252;18.848;2023-05-12T08:43:06;98863.83;;;24.76;25.90
62436;BME280;48480;50.252;18.848;2023-05-12T08:45:55;98862.19;;;24.89;25.98
62436;BME280;48480;50.252;18.848;2023-05-12T08:48:44;98855.86;;;25.20;25.62
62436;BME280;48480;50.252;18.848;2023-05-12T08:51:35;98858.20;;;25.43;24.90
62436;BME280;48480;50.252;18.848;2023-05-12T08:54:21;98858.05;;;25.44;24.42
62436;BME280;48480;50.252;18.848;2023-05-12T08:57:05;98856.08;;;25.34;24.37
62436;BME280;48480;50.252;18.848;2023-05-12T08:59:53;98850.93;;;25.07;24.29
62436;BME280;48480;50.252;18.848;2023-05-12T09:02:39;98861.83;;;24.98;24.66
62436;BME280;48480;50.252;18.848;2023-05-12T09:05:30;98858.52;;;24.88;24.05
62436;BME280;48480;50.252;18.848;2023-05-12T09:08:15;98857.65;;;24.89;24.59
62436;BME280;48480;50.252;18.848;2023-05-12T09:11:10;98856.38;;;25.02;24.40
62436;BME280;48480;50.252;18.848;2023-05-12T09:14:04;98858.86;;;25.06;24.53
62436;BME280;48480;50.252;18.848;2023-05-12T09:16:52;98854.89;;;25.27;24.32
62436;BME280;48480;50.252;18.848;2023-05-12T09:19:38;98853.58;;;25.42;24.58
62436;BME280;48480;50.252;18.848;2023-05-12T09:22:30;98853.21;;;25.74;23.84
62436;BME280;48480;50.252;18.848;2023-05-12T09:25:18;98854.85;;;25.91;22.88
62436;BME280;48480;50.252;18.848;2023-05-12T09:28:03;98855.64;;;25.74;22.54
62436;BME280;48480;50.252;18.848;2023-05-12T09:30:47;98855.84;;;25.45;22.43
62436;BME280;48480;50.252;18.848;2023-05-12T09:33:40;98847.06;;;25.22;22.87
62436;BME280;48480;50.252;18.848;2023-05-12T09:36:24;98852.23;;;25.37;22.37
62436;BME280;48480;50.252;18.848;2023-05-12T09:39:09;98854.23;;;25.30;22.31
62436;BME280;48480;50.252;18.848;2023-05-12T09:41:55;98859.81;;;25.48;21.80
62436;BME280;48480;50.252;18.848;2023-05-12T09:44:40;98855.70;;;25.69;21.56
62436;BME280;48480;50.252;18.848;2023-05-12T09:47:34;98859.70;;;25.69;21.10
62436;BME280;48480;50.252;18.848;2023-05-12T09:50:20;98856.27;;;25.74;20.57
62436;BME280;48480;50.252;18.848;2023-05-12T09:53:05;98852.75;;;25.90;20.04
62436;BME280;48480;50.252;18.848;2023-05-12T09:55:50;98860.45;;;25.89;19.87
62436;BME280;48480;50.252;18.848;2023-05-12T09:58:35;98850.30;;;25.91;19.89
62436;BME280;48480;50.252;18.848;2023-05-12T10:01:20;98861.41;;;26.03;20.06
62436;BME280;48480;50.252;18.848;2023-05-12T10:04:07;98858.13;;;26.03;20.25
62436;BME280;48480;50.252;18.848;2023-05-12T10:06:52;98854.69;;;26.01;20.35
62436;BME280;48480;50.252;18.848;2023-05-12T10:09:44;98866.70;;;25.92;20.28
62436;BME280;48480;50.252;18.848;2023-05-12T10:12:30;98866.00;;;25.83;20.00
62436;BME280;48480;50.252;18.848;2023-05-12T10:15:22;98861.80;;;25.33;21.48
62436;BME280;48480;50.252;18.848;2023-05-12T10:18:08;98867.89;;;24.80;22.04
62436;BME280;48480;50.252;18.848;2023-05-12T10:20:52;98857.99;;;24.55;22.11
62436;BME280;48480;50.252;18.848;2023-05-12T10:23:39;98855.01;;;24.36;22.12
62436;BME280;48480;50.252;18.848;2023-05-12T10:26:31;98865.13;;;24.06;22.06
62436;BME280;48480;50.252;18.848;2023-05-12T10:29:23;98862.23;;;23.66;21.87
62436;BME280;48480;50.252;18.848;2023-05-12T10:32:19;98865.67;;;23.25;22.14
62436;BME280;48480;50.252;18.848;2023-05-12T10:35:08;98855.52;;;22.87;22.60
62436;BME280;48480;50.252;18.848;2023-05-12T10:37:53;98864.95;;;22.76;22.81
62436;BME280;48480;50.252;18.848;2023-05-12T10:40:50;98852.56;;;22.87;22.60
62436;BME280;48480;50.252;18.848;2023-05-12T10:43:42;98859.58;;;23.32;22.68
62436;BME280;48480;50.252;18.848;2023-05-12T10:46:28;98856.27;;;23.67;22.26
62436;BME280;48480;50.252;18.848;2023-05-12T10:49:13;98852.00;;;23.98;22.10
62436;BME280;48480;50.252;18.848;2023-05-12T10:51:59;98852.16;;;24.23;21.67
62436;BME280;48480;50.252;18.848;2023-05-12T10:54:47;98845.10;;;24.25;21.36
62436;BME280;48480;50.252;18.848;2023-05-12T10:57:31;98846.84;;;24.21;21.75
62436;BME280;48480;50.252;18.848;2023-05-12T11:00:24;98854.55;;;24.13;21.93
62436;BME280;48480;50.252;18.848;2023-05-12T11:03:13;98853.48;;;24.02;21.66
62436;BME280;48480;50.252;18.848;2023-05-12T11:06:03;98862.43;;;23.87;22.09
62436;BME280;48480;50.252;18.848;2023-05-12T11:08:48;98854.23;;;23.64;22.39
62436;BME280;48480;50.252;18.848;2023-05-12T11:11:39;98854.41;;;23.27;22.47
62436;BME280;48480;50.252;18.848;2023-05-12T11:14:23;98856.29;;;22.80;23.06
62436;BME280;48480;50.252;18.848;2023-05-12T11:17:17;98856.34;;;22.63;23.59
62436;BME280;48480;50.252;18.848;2023-05-12T11:20:01;98855.42;;;22.46;23.81
62436;BME280;48480;50.252;18.848;2023-05-12T11:22:54;98855.52;;;22.29;23.74
62436;BME280;48480;50.252;18.848;2023-05-12T11:25:43;98853.40;;;22.27;24.11
62436;BME280;48480;50.252;18.848;2023-05-12T11:28:39;98858.41;;;22.18;23.85
62436;BME280;48480;50.252;18.848;2023-05-12T11:31:24;98862.83;;;21.85;24.45
62436;BME280;48480;50.252;18.848;2023-05-12T11:34:11;98864.97;;;21.77;24.46
62436;BME280;48480;50.252;18.848;2023-05-12T11:36:55;98858.95;;;21.64;24.83
62436;BME280;48480;50.252;18.848;2023-05-12T11:39:48;98859.89;;;21.63;24.80
62436;BME280;48480;50.252;18.848;2023-05-12T11:42:33;98863.40;;;21.64;24.78
62436;BME280;48480;50.252;18.848;2023-05-12T11:45:24;98865.43;;;21.65;24.91
62436;BME280;48480;50.252;18.848;2023-05-12T11:48:12;98862.10;;;21.69;25.12
62436;BME280;48480;50.252;18.848;2023-05-12T11:51:07;98868.81;;;21.81;25.11
62436;BME280;48480;50.252;18.848;2023-05-12T11:53:52;98867.81;;;21.96;24.32
62436;BME280;48480;50.252;18.848;2023-05-12T11:56:46;98866.41;;;22.11;24.53
62436;BME280;48480;50.252;18.848;2023-05-12T11:59:33;98871.80;;;22.13;24.43
62436;BME280;48480;50.252;18.848;2023-05-12T12:02:20;98870.94;;;21.96;24.30
62436;BME280;48480;50.252;18.848;2023-05-12T12:05:18;98863.89;;;21.91;24.51
62436;BME280;48480;50.252;18.848;2023-05-12T12:08:14;98864.11;;;22.03;24.64
62436;BME280;48480;50.252;18.848;2023-05-12T12:10:58;98862.90;;;22.11;24.85
62436;BME280;48480;50.252;18.848;2023-05-12T12:13:47;98855.71;;;22.24;24.99
62436;BME280;48480;50.252;18.848;2023-05-12T12:16:33;98866.14;;;22.29;24.81
62436;BME280;48480;50.252;18.848;2023-05-12T12:19:17;98863.19;;;22.21;24.79
62436;BME280;48480;50.252;18.848;2023-05-12T12:22:01;98867.95;;;22.22;24.89
62436;BME280;48480;50.252;18.848;2023-05-12T12:24:54;98871.58;;;22.16;24.91
62436;BME280;48480;50.252;18.848;2023-05-12T12:27:38;98877.35;;;21.99;25.14
62436;BME280;48480;50.252;18.848;2023-05-12T12:30:32;98876.83;;;21.89;25.48
62436;BME280;48480;50.252;18.848;2023-05-12T12:33:17;98878.41;;;21.81;25.47
62436;BME280;48480;50.252;18.848;2023-05-12T12:36:09;98881.48;;;21.72;24.94
62436;BME280;48480;50.252;18.848;2023-05-12T12:38:53;98886.26;;;21.55;24.88
62436;BME280;48480;50.252;18.848;2023-05-12T12:41:47;98881.36;;;21.56;24.87
62436;BME280;48480;50.252;18.848;2023-05-12T12:44:31;98882.36;;;21.76;25.42
62436;BME280;48480;50.252;18.848;2023-05-12T12:47:24;98880.77;;;21.86;25.40
62436;BME280;48480;50.252;18.848;2023-05-12T12:50:09;98889.77;;;21.66;25.90
62436;BME280;48480;50.252;18.848;2023-05-12T12:53:04;98882.25;;;21.61;25.91
62436;BME280;48480;50.252;18.848;2023-05-12T12:55:47;98877.27;;;21.64;26.03
62436;BME280;48480;50.252;18.848;2023-05-12T12:58:42;98875.70;;;21.71;26.11
62436;BME280;48480;50.252;18.848;2023-05-12T13:01:27;98881.62;;;21.82;25.97
62436;BME280;48480;50.252;18.848;2023-05-12T13:04:17;98889.69;;;21.87;25.95
62436;BME280;48480;50.252;18.848;2023-05-12T13:07:05;98886.48;;;21.76;26.09
62436;BME280;48480;50.252;18.848;2023-05-12T13:09:56;98880.44;;;21.59;26.41
62436;BME280;48480;50.252;18.848;2023-05-12T13:12:40;98880.98;;;21.59;26.39
62436;BME280;48480;50.252;18.848;2023-05-12T13:15:35;98883.80;;;21.58;26.68
62436;BME280;48480;50.252;18.848;2023-05-12T13:18:20;98882.36;;;21.38;26.90
62436;BME280;48480;50.252;18.848;2023-05-12T13:21:14;98890.96;;;21.23;27.01
62436;BME280;48480;50.252;18.848;2023-05-12T13:23:59;98884.73;;;21.09;26.96
62436;BME280;48480;50.252;18.848;2023-05-12T13:26:49;98885.07;;;20.94;27.19
62436;BME280;48480;50.252;18.848;2023-05-12T13:29:35;98884.89;;;20.76;27.09
62436;BME280;48480;50.252;18.848;2023-05-12T13:32:28;98881.02;;;20.66;27.23
62436;BME280;48480;50.252;18.848;2023-05-12T13:35:12;98881.68;;;20.61;27.13
62436;BME280;48480;50.252;18.848;2023-05-12T13:38:05;98880.64;;;20.60;27.11
62436;BME280;48480;50.252;18.848;2023-05-12T13:40:49;98877.61;;;20.60;27.26
62436;BME280;48480;50.252;18.848;2023-05-12T13:43:45;98869.73;;;20.64;27.06
62436;BME280;48480;50.252;18.848;2023-05-12T13:46:29;98874.17;;;20.65;27.31
62436;BME280;48480;50.252;18.848;2023-05-12T13:49:31;98880.16;;;20.71;27.19
62436;BME280;48480;50.252;18.848;2023-05-12T13:52:15;98871.79;;;20.61;27.21
62436;BME280;48480;50.252;18.848;2023-05-12T13:54:59;98870.05;;;20.54;27.56
62436;BME280;48480;50.252;18.848;2023-05-12T13:57:43;98865.90;;;20.46;27.89
62436;BME280;48480;50.252;18.848;2023-05-12T14:00:36;98861.57;;;20.41;27.86
62436;BME280;48480;50.252;18.848;2023-05-12T14:03:21;98865.34;;;20.45;28.00
62436;BME280;48480;50.252;18.848;2023-05-12T14:06:17;98864.45;;;20.47;28.07
62436;BME280;48480;50.252;18.848;2023-05-12T14:09:01;98863.77;;;20.49;28.01
62436;BME280;48480;50.252;18.848;2023-05-12T14:11:53;98861.48;;;20.53;27.82
62436;BME280;48480;50.252;18.848;2023-05-12T14:14:37;98863.89;;;20.54;28.05
62436;BME280;48480;50.252;18.848;2023-05-12T14:17:31;98861.58;;;20.55;27.89
62436;BME280;48480;50.252;18.848;2023-05-12T14:20:15;98862.20;;;20.49;28.10
62436;BME280;48480;50.252;18.848;2023-05-12T14:23:08;98864.12;;;20.46;28.42
62436;BME280;48480;50.252;18.848;2023-05-12T14:25:52;98859.85;;;20.48;28.37
62436;BME280;48480;50.252;18.848;2023-05-12T14:28:47;98858.27;;;20.52;28.47
62436;BME280;48480;50.252;18.848;2023-05-12T14:31:31;98863.09;;;20.63;28.45
62436;BME280;48480;50.252;18.848;2023-05-12T14:34:22;98860.64;;;20.67;28.32